createdAt,value
2023-05-14T00:01:15.221Z,5.22
2023-05-14T00:02:56.680Z,5.37
2023-05-14T00:04:38.266Z,5.58
2023-05-14T00:06:19.731Z,5.66
2023-05-14T00:08:01.033Z,5.55
2023-05-14T00:09:42.335Z,5.58
2023-05-14T00:11:23.691Z,5.55
2023-05-14T00:13:04.990Z,5.80
2023-05-14T00:14:46.275Z,5.98
2023-05-14T00:16:27.630Z,6.08
2023-05-14T00:18:08.994Z,6.06
2023-05-14T00:19:50.331Z,5.87
2023-05-14T00:21:31.660Z,5.84
2023-05-14T00:23:12.983Z,5.98
2023-05-14T00:24:54.290Z,6.05
2023-05-14T00:26:35.625Z,5.84
2023-05-14T00:28:16.949Z,6.06
2023-05-14T00:29:58.234Z,6.07
2023-05-14T00:31:39.586Z,6.37
2023-05-14T00:33:20.882Z,6.45
2023-05-14T00:35:02.225Z,6.80
2023-05-14T00:36:43.577Z,6.97
2023-05-14T00:38:24.863Z,7.14
2023-05-14T00:40:06.178Z,7.21
2023-05-14T00:41:47.482Z,7.23
2023-05-14T00:43:28.755Z,7.15
2023-05-14T00:45:10.050Z,7.18
2023-05-14T00:46:51.361Z,7.02
2023-05-14T00:48:32.664Z,6.86
2023-05-14T00:50:13.968Z,6.79
2023-05-14T00:51:55.272Z,6.94
2023-05-14T00:53:36.536Z,7.10
2023-05-14T00:55:17.864Z,7.20
2023-05-14T00:56:59.177Z,7.23
2023-05-14T00:58:40.443Z,7.06
2023-05-14T01:00:21.872Z,6.98
2023-05-14T01:02:03.394Z,7.03
2023-05-14T01:03:44.765Z,7.06
2023-05-14T01:05:26.141Z,7.23
2023-05-14T01:07:07.456Z,7.23
2023-05-14T01:08:48.749Z,7.05
2023-05-14T01:10:30.061Z,6.77
2023-05-14T01:12:11.408Z,6.53
2023-05-14T01:13:52.740Z,6.13
2023-05-14T01:15:34.074Z,5.89
2023-05-14T01:17:15.403Z,5.79
2023-05-14T01:18:56.729Z,5.76
2023-05-14T01:20:38.124Z,5.85
2023-05-14T01:22:19.459Z,6.02
2023-05-14T01:24:00.910Z,5.98
2023-05-14T01:25:42.251Z,6.44
2023-05-14T01:27:23.575Z,6.51
2023-05-14T01:29:04.912Z,6.40
2023-05-14T01:30:46.230Z,6.23
2023-05-14T01:32:27.562Z,6.38
2023-05-14T01:34:08.856Z,6.52
2023-05-14T01:35:50.181Z,6.49
2023-05-14T01:37:31.482Z,6.52
2023-05-14T01:39:12.787Z,6.47
2023-05-14T01:40:54.146Z,6.24
2023-05-14T01:42:35.515Z,6.10
2023-05-14T01:44:16.837Z,5.87
2023-05-14T01:45:58.204Z,5.90
2023-05-14T01:47:39.547Z,6.27
2023-05-14T01:49:20.872Z,6.48
2023-05-14T01:51:02.171Z,5.97
2023-05-14T01:52:43.496Z,5.62
2023-05-14T01:54:24.814Z,5.31
2023-05-14T01:56:06.166Z,5.24
2023-05-14T01:57:47.569Z,4.99
2023-05-14T01:59:28.933Z,5.20
2023-05-14T02:01:10.273Z,5.11
2023-05-14T02:02:51.606Z,5.21
2023-05-14T02:04:32.895Z,5.13
2023-05-14T02:06:14.193Z,5.00
2023-05-14T02:07:55.516Z,5.02
2023-05-14T02:09:36.831Z,5.14
2023-05-14T02:11:18.117Z,5.02
2023-05-14T02:12:59.509Z,5.22
2023-05-14T02:14:40.810Z,5.06
2023-05-14T02:16:22.285Z,5.21
2023-05-14T02:18:03.695Z,5.17
2023-05-14T02:19:45.099Z,5.31
2023-05-14T02:21:26.394Z,5.20
2023-05-14T02:23:07.694Z,5.25
2023-05-14T02:24:48.988Z,5.32
2023-05-14T02:26:30.319Z,5.12
2023-05-14T02:28:11.728Z,5.32
2023-05-14T02:29:53.001Z,5.52
2023-05-14T02:31:34.326Z,5.63
2023-05-14T02:33:15.733Z,5.79
2023-05-14T02:34:57.113Z,5.95
2023-05-14T02:36:38.391Z,6.02
2023-05-14T02:38:19.673Z,6.23
2023-05-14T02:40:00.983Z,6.34
2023-05-14T02:41:42.311Z,5.98
2023-05-14T02:43:23.619Z,5.75
2023-05-14T02:45:04.907Z,5.70
2023-05-14T02:46:46.218Z,5.67
2023-05-14T02:48:27.522Z,5.75
2023-05-14T02:50:08.817Z,5.74
2023-05-14T02:51:50.130Z,5.82
2023-05-14T02:53:31.474Z,6.11
2023-05-14T02:55:12.780Z,6.10
2023-05-14T02:56:54.079Z,5.75
2023-05-14T02:58:35.380Z,5.65
2023-05-14T03:00:16.680Z,5.17
2023-05-14T03:01:58.516Z,4.86
2023-05-14T03:03:40.289Z,4.78
2023-05-14T03:05:22.034Z,4.86
2023-05-14T03:07:03.344Z,4.97
2023-05-14T03:08:44.637Z,5.20
2023-05-14T03:10:26.104Z,5.28
2023-05-14T03:12:07.543Z,5.50
2023-05-14T03:13:48.804Z,5.62
2023-05-14T03:15:30.079Z,5.75
2023-05-14T03:17:11.616Z,5.92
2023-05-14T03:18:53.196Z,6.00
2023-05-14T03:20:34.529Z,6.10
2023-05-14T03:22:15.837Z,6.26
2023-05-14T03:23:57.120Z,6.18
2023-05-14T03:25:38.401Z,5.64
2023-05-14T03:27:19.667Z,5.46
2023-05-14T03:29:00.970Z,5.16
2023-05-14T03:30:42.287Z,5.23
2023-05-14T03:32:23.679Z,5.20
2023-05-14T03:34:05.004Z,5.09
2023-05-14T03:35:46.326Z,4.95
2023-05-14T03:37:27.645Z,4.98
2023-05-14T03:39:08.920Z,4.94
2023-05-14T03:40:50.204Z,5.00
2023-05-14T03:42:31.520Z,4.78
2023-05-14T03:44:12.795Z,4.78
2023-05-14T03:45:54.090Z,4.80
2023-05-14T03:47:35.424Z,4.76
2023-05-14T03:49:16.720Z,4.93
2023-05-14T03:50:58.016Z,5.07
2023-05-14T03:52:39.305Z,4.96
2023-05-14T03:54:20.614Z,5.03
2023-05-14T03:56:01.876Z,5.17
2023-05-14T03:57:43.185Z,4.87
2023-05-14T03:59:24.476Z,4.78
2023-05-14T04:01:05.762Z,4.66
2023-05-14T04:02:47.157Z,4.49
2023-05-14T04:04:28.538Z,4.43
2023-05-14T04:06:09.886Z,4.58
2023-05-14T04:07:51.156Z,4.45
2023-05-14T04:09:32.501Z,4.33
2023-05-14T04:11:13.846Z,4.36
2023-05-14T04:12:55.113Z,4.66
2023-05-14T04:14:36.387Z,4.45
2023-05-14T04:16:17.737Z,4.60
2023-05-14T04:17:59.107Z,4.68
2023-05-14T04:19:40.426Z,4.76
2023-05-14T04:21:21.758Z,4.74
2023-05-14T04:23:03.064Z,4.82
2023-05-14T04:24:44.405Z,4.99
2023-05-14T04:26:25.687Z,5.33
2023-05-14T04:28:06.980Z,5.67
2023-05-14T04:29:48.238Z,6.08
2023-05-14T04:31:29.588Z,6.16
2023-05-14T04:33:11.023Z,6.30
2023-05-14T04:34:52.337Z,6.19
2023-05-14T04:36:33.656Z,6.28
2023-05-14T04:38:14.962Z,6.17
2023-05-14T04:39:56.250Z,6.20
2023-05-14T04:41:37.591Z,6.31
2023-05-14T04:43:18.985Z,6.44
2023-05-14T04:45:00.281Z,6.45
2023-05-14T04:46:41.571Z,6.36
2023-05-14T04:48:22.865Z,6.32
2023-05-14T04:50:04.138Z,6.25
2023-05-14T04:51:45.439Z,6.13
2023-05-14T04:53:26.737Z,5.95
2023-05-14T04:55:08.038Z,6.12
2023-05-14T04:56:49.331Z,6.19
2023-05-14T04:58:32.135Z,6.28
2023-05-14T05:00:14.975Z,6.33
2023-05-14T05:01:56.257Z,6.41
2023-05-14T05:03:37.620Z,6.37
2023-05-14T05:05:18.979Z,6.61
2023-05-14T05:07:00.263Z,6.94
2023-05-14T05:08:41.585Z,6.94
2023-05-14T05:10:23.163Z,6.47
2023-05-14T05:12:04.700Z,6.21
2023-05-14T05:13:46.013Z,6.01
2023-05-14T05:15:27.325Z,5.85
2023-05-14T05:17:08.666Z,6.06
2023-05-14T05:18:50.164Z,5.84
2023-05-14T05:20:31.544Z,5.70
2023-05-14T05:22:12.876Z,5.48
2023-05-14T05:23:54.310Z,5.54
2023-05-14T05:25:35.641Z,5.40
2023-05-14T05:27:16.978Z,5.43
2023-05-14T05:28:58.283Z,5.57
2023-05-14T05:30:39.598Z,5.69
2023-05-14T05:32:20.942Z,5.30
2023-05-14T05:34:02.379Z,5.02
2023-05-14T05:35:43.685Z,5.08
2023-05-14T05:37:24.984Z,5.13
2023-05-14T05:39:06.360Z,5.03
2023-05-14T05:40:47.641Z,5.05
2023-05-14T05:42:28.944Z,5.03
2023-05-14T05:44:10.268Z,5.43
2023-05-14T05:45:51.567Z,5.34
2023-05-14T05:47:32.922Z,5.12
2023-05-14T05:49:14.215Z,5.37
2023-05-14T05:50:55.499Z,5.59
2023-05-14T05:52:36.781Z,5.91
2023-05-14T05:54:18.104Z,6.04
2023-05-14T05:55:59.433Z,6.14
2023-05-14T05:57:40.738Z,6.39
2023-05-14T05:59:22.053Z,6.72
2023-05-14T06:01:03.363Z,6.82
2023-05-14T06:02:44.786Z,6.96
2023-05-14T06:04:26.153Z,7.39
2023-05-14T06:06:07.449Z,7.50
2023-05-14T06:07:48.752Z,7.55
2023-05-14T06:09:30.092Z,7.85
2023-05-14T06:11:11.360Z,7.71
2023-05-14T06:12:52.660Z,7.89
2023-05-14T06:14:33.987Z,8.14
2023-05-14T06:16:15.414Z,8.17
2023-05-14T06:17:56.719Z,8.15
2023-05-14T06:19:38.029Z,8.19
2023-05-14T06:21:19.332Z,8.47
2023-05-14T06:23:00.604Z,8.64
2023-05-14T06:24:41.940Z,8.55
2023-05-14T06:26:23.209Z,8.69
2023-05-14T06:28:04.501Z,8.84
2023-05-14T06:29:45.817Z,8.94
2023-05-14T06:31:27.176Z,8.99
2023-05-14T06:33:08.528Z,9.16
2023-05-14T06:34:49.915Z,9.25
2023-05-14T06:36:31.205Z,9.35
2023-05-14T06:38:12.493Z,9.12
2023-05-14T06:39:54.690Z,9.10
2023-05-14T06:41:37.058Z,8.81
2023-05-14T06:43:18.385Z,8.66
2023-05-14T06:44:59.724Z,8.56
2023-05-14T06:46:41.033Z,8.53
2023-05-14T06:48:22.457Z,8.40
2023-05-14T06:50:03.856Z,8.22
2023-05-14T06:51:45.156Z,8.14
2023-05-14T06:53:26.458Z,8.27
2023-05-14T06:55:07.788Z,8.53
2023-05-14T06:56:49.103Z,8.33
2023-05-14T06:58:30.472Z,8.59
2023-05-14T07:00:11.813Z,8.85
2023-05-14T07:01:53.164Z,8.96
2023-05-14T07:03:34.474Z,9.00
2023-05-14T07:05:15.782Z,9.03
2023-05-14T07:06:57.222Z,9.02
2023-05-14T07:08:38.517Z,8.95
2023-05-14T07:10:19.819Z,9.13
2023-05-14T07:12:01.112Z,9.33
2023-05-14T07:13:42.373Z,9.18
2023-05-14T07:15:23.713Z,9.12
2023-05-14T07:17:05.111Z,9.35
2023-05-14T07:18:46.495Z,9.44
2023-05-14T07:20:27.940Z,9.49
2023-05-14T07:22:09.295Z,9.50
2023-05-14T07:23:50.574Z,9.37
2023-05-14T07:25:31.874Z,9.62
2023-05-14T07:27:13.167Z,9.34
2023-05-14T07:28:54.446Z,9.53
2023-05-14T07:30:35.709Z,9.12
2023-05-14T07:32:17.049Z,9.15
2023-05-14T07:33:58.364Z,9.40
2023-05-14T07:35:39.668Z,9.39
2023-05-14T07:37:21.978Z,9.38
2023-05-14T07:39:04.988Z,9.55
2023-05-14T07:40:46.264Z,9.57
2023-05-14T07:42:36.001Z,9.58
2023-05-14T07:44:18.144Z,9.52
2023-05-14T07:45:59.429Z,9.82
2023-05-14T07:47:40.938Z,9.50
2023-05-14T07:49:22.382Z,9.56
2023-05-14T07:51:03.663Z,8.92
2023-05-14T07:52:44.973Z,8.85
2023-05-14T07:54:26.281Z,8.53
2023-05-14T07:56:07.555Z,7.95
2023-05-14T07:57:48.837Z,7.60
2023-05-14T07:59:30.176Z,7.58
2023-05-14T08:01:11.487Z,7.86
2023-05-14T08:02:53.081Z,8.08
2023-05-14T08:04:34.600Z,7.89
2023-05-14T08:06:15.993Z,8.02
2023-05-14T08:07:57.462Z,7.95
2023-05-14T08:09:38.816Z,7.85
2023-05-14T08:11:20.189Z,7.77
2023-05-14T08:13:01.492Z,7.74
2023-05-14T08:14:42.802Z,8.18
2023-05-14T08:16:24.125Z,8.43
2023-05-14T08:18:05.511Z,8.21
2023-05-14T08:19:46.875Z,8.44
2023-05-14T08:21:28.187Z,8.21
2023-05-14T08:23:09.483Z,8.21
2023-05-14T08:24:50.761Z,8.43
2023-05-14T08:26:32.037Z,8.61
2023-05-14T08:28:13.340Z,8.51
2023-05-14T08:29:54.623Z,8.52
2023-05-14T08:31:35.948Z,8.23
2023-05-14T08:33:17.251Z,8.29
2023-05-14T08:34:58.513Z,8.18
2023-05-14T08:36:39.817Z,8.15
2023-05-14T08:38:21.168Z,8.09
2023-05-14T08:40:02.459Z,8.30
2023-05-14T08:41:43.884Z,8.43
2023-05-14T08:43:25.211Z,8.85
2023-05-14T08:45:06.490Z,8.44
2023-05-14T08:46:47.773Z,8.56
2023-05-14T08:48:29.195Z,8.75
2023-05-14T08:50:10.549Z,8.93
2023-05-14T08:51:51.884Z,9.32
2023-05-14T08:53:33.174Z,9.26
2023-05-14T08:55:14.606Z,9.08
2023-05-14T08:56:55.879Z,9.08
2023-05-14T08:58:37.172Z,8.87
2023-05-14T09:00:18.524Z,9.32
2023-05-14T09:01:59.890Z,9.71
2023-05-14T09:03:41.309Z,9.89
2023-05-14T09:05:22.621Z,9.75
2023-05-14T09:07:03.923Z,9.91
2023-05-14T09:08:45.263Z,10.06
2023-05-14T09:10:26.897Z,10.16
2023-05-14T09:12:08.355Z,10.19
2023-05-14T09:13:49.713Z,10.03
2023-05-14T09:15:31.052Z,9.96
2023-05-14T09:17:12.384Z,9.68
2023-05-14T09:18:53.688Z,9.91
2023-05-14T09:20:35.024Z,10.03
2023-05-14T09:22:16.317Z,10.04
2023-05-14T09:23:57.611Z,10.21
2023-05-14T09:25:38.924Z,10.02
2023-05-14T09:27:20.276Z,9.95
2023-05-14T09:29:01.544Z,9.90
2023-05-14T09:30:42.864Z,9.97
2023-05-14T09:32:24.198Z,10.02
2023-05-14T09:34:05.505Z,10.30
2023-05-14T09:35:46.799Z,10.09
2023-05-14T09:37:28.119Z,10.05
2023-05-14T09:39:09.409Z,9.76
2023-05-14T09:40:50.714Z,10.13
2023-05-14T09:42:32.058Z,10.41
2023-05-14T09:44:13.357Z,10.52
2023-05-14T09:45:54.669Z,10.73
2023-05-14T09:47:36.102Z,11.07
2023-05-14T09:49:17.453Z,10.70
2023-05-14T09:50:58.750Z,11.07
2023-05-14T09:52:40.117Z,11.22
2023-05-14T09:54:21.516Z,10.96
2023-05-14T09:56:02.865Z,11.24
2023-05-14T09:57:44.151Z,11.34
2023-05-14T09:59:25.448Z,11.34
2023-05-14T10:01:06.772Z,11.29
2023-05-14T10:02:48.107Z,11.06
2023-05-14T10:04:29.467Z,10.66
2023-05-14T10:06:10.814Z,10.66
2023-05-14T10:07:52.132Z,10.64
2023-05-14T10:09:33.437Z,10.45
2023-05-14T10:11:14.724Z,10.48
2023-05-14T10:12:56.021Z,10.60
2023-05-14T10:14:37.332Z,10.92
2023-05-14T10:16:18.658Z,10.70
2023-05-14T10:18:00.043Z,10.72
2023-05-14T10:19:41.368Z,10.58
2023-05-14T10:21:22.630Z,10.99
2023-05-14T10:23:03.964Z,10.55
2023-05-14T10:24:45.325Z,10.41
2023-05-14T10:26:26.606Z,10.16
2023-05-14T10:28:07.947Z,9.85
2023-05-14T10:29:49.246Z,9.47
2023-05-14T10:31:30.670Z,9.11
2023-05-14T10:33:12.070Z,9.07
2023-05-14T10:34:53.550Z,9.48
2023-05-14T10:36:34.897Z,9.61
2023-05-14T10:38:16.198Z,9.50
2023-05-14T10:39:57.514Z,9.54
2023-05-14T10:41:38.893Z,9.81
2023-05-14T10:43:20.185Z,10.09
2023-05-14T10:45:01.496Z,10.23
2023-05-14T10:46:42.815Z,10.46
2023-05-14T10:48:24.207Z,10.40
2023-05-14T10:50:05.578Z,10.53
2023-05-14T10:51:46.865Z,10.92
2023-05-14T10:53:28.126Z,10.56
2023-05-14T10:55:09.464Z,11.15
2023-05-14T10:56:50.754Z,11.58
2023-05-14T10:58:32.030Z,11.78
2023-05-14T11:00:13.329Z,11.74
2023-05-14T11:01:54.653Z,11.56
2023-05-14T11:03:35.976Z,11.67
2023-05-14T11:05:17.645Z,11.86
2023-05-14T11:06:59.351Z,11.68
2023-05-14T11:08:40.671Z,11.53
2023-05-14T11:10:22.271Z,11.89
2023-05-14T11:12:03.892Z,11.59
2023-05-14T11:13:45.179Z,11.47
2023-05-14T11:15:26.564Z,11.48
2023-05-14T11:17:07.906Z,11.06
2023-05-14T11:18:49.223Z,11.09
2023-05-14T11:20:30.561Z,11.19
2023-05-14T11:22:11.935Z,11.29
2023-05-14T11:23:53.231Z,11.02
2023-05-14T11:25:34.514Z,11.29
2023-05-14T11:27:15.806Z,11.03
2023-05-14T11:28:57.118Z,11.46
2023-05-14T11:30:38.416Z,11.78
2023-05-14T11:32:19.755Z,12.22
2023-05-14T11:34:01.038Z,12.21
2023-05-14T11:35:42.330Z,11.88
2023-05-14T11:37:23.650Z,11.34
2023-05-14T11:39:04.983Z,10.98
2023-05-14T11:40:46.289Z,11.55
2023-05-14T11:42:27.590Z,11.69
2023-05-14T11:44:09.237Z,11.65
2023-05-14T11:45:50.570Z,11.65
2023-05-14T11:47:31.916Z,11.69
2023-05-14T11:49:13.220Z,11.70
2023-05-14T11:50:54.477Z,11.58
2023-05-14T11:52:35.734Z,11.59
2023-05-14T11:54:17.046Z,11.04
2023-05-14T11:55:58.385Z,9.75
2023-05-14T11:57:39.722Z,9.27
2023-05-14T11:59:21.020Z,9.30
2023-05-14T12:01:02.333Z,8.85
2023-05-14T12:02:43.762Z,8.75
2023-05-14T12:04:25.218Z,8.49
2023-05-14T12:06:06.550Z,8.70
2023-05-14T12:07:47.947Z,8.74
2023-05-14T12:09:29.306Z,8.97
2023-05-14T12:11:10.590Z,9.20
2023-05-14T12:12:51.861Z,9.16
2023-05-14T12:14:33.154Z,10.06
2023-05-14T12:16:14.486Z,10.76
2023-05-14T12:17:55.880Z,10.69
2023-05-14T12:19:37.212Z,10.71
2023-05-14T12:21:18.534Z,10.70
2023-05-14T12:22:59.862Z,11.38
2023-05-14T12:24:41.155Z,12.02
2023-05-14T12:26:22.418Z,12.39
2023-05-14T12:28:03.717Z,12.47
2023-05-14T12:29:44.994Z,12.35
2023-05-14T12:31:26.308Z,12.46
2023-05-14T12:33:07.714Z,12.49
2023-05-14T12:34:49.038Z,12.25
2023-05-14T12:36:30.326Z,12.32
2023-05-14T12:38:11.610Z,12.40
2023-05-14T12:39:52.932Z,12.25
2023-05-14T12:41:34.225Z,11.99
2023-05-14T12:43:15.541Z,12.27
2023-05-14T12:44:56.903Z,12.47
2023-05-14T12:46:38.247Z,12.12
2023-05-14T12:48:19.602Z,12.08
2023-05-14T12:50:00.963Z,11.97
2023-05-14T12:51:42.227Z,12.16
2023-05-14T12:53:23.476Z,11.95
2023-05-14T12:55:04.775Z,12.23
2023-05-14T12:56:46.085Z,12.34
2023-05-14T12:58:27.426Z,12.17
2023-05-14T13:00:08.830Z,11.32
2023-05-14T13:01:50.362Z,11.41
2023-05-14T13:03:31.642Z,11.32
2023-05-14T13:05:12.975Z,11.08
2023-05-14T13:06:54.367Z,10.80
2023-05-14T13:08:35.713Z,10.85
2023-05-14T13:10:17.052Z,11.52
2023-05-14T13:11:58.364Z,11.64
2023-05-14T13:13:39.689Z,12.06
2023-05-14T13:15:21.070Z,12.06
2023-05-14T13:17:02.527Z,11.93
2023-05-14T13:18:43.907Z,12.04
2023-05-14T13:20:25.205Z,12.44
2023-05-14T13:22:06.499Z,11.69
2023-05-14T13:23:47.802Z,12.11
2023-05-14T13:25:29.096Z,12.37
2023-05-14T13:27:10.382Z,12.35
2023-05-14T13:28:51.671Z,12.34
2023-05-14T13:30:32.981Z,11.50
2023-05-14T13:32:14.249Z,10.74
2023-05-14T13:33:55.532Z,10.80
2023-05-14T13:35:36.844Z,10.65
2023-05-14T13:37:18.132Z,9.98
2023-05-14T13:38:59.402Z,9.84
2023-05-14T13:40:40.691Z,9.87
2023-05-14T13:42:21.995Z,9.33
2023-05-14T13:44:03.300Z,9.35
2023-05-14T13:45:44.625Z,9.40
2023-05-14T13:47:25.964Z,8.99
2023-05-14T13:49:07.319Z,9.31
2023-05-14T13:50:48.625Z,9.35
2023-05-14T13:52:29.917Z,9.44
2023-05-14T13:54:11.223Z,9.34
2023-05-14T13:55:52.583Z,9.41
2023-05-14T13:57:33.853Z,9.30
2023-05-14T13:59:15.155Z,9.42
2023-05-14T14:00:56.454Z,9.36
2023-05-14T14:02:37.791Z,9.43
2023-05-14T14:04:19.110Z,9.34
2023-05-14T14:06:00.408Z,9.09
2023-05-14T14:07:41.673Z,9.37
2023-05-14T14:09:22.956Z,9.41
2023-05-14T14:11:04.220Z,9.49
2023-05-14T14:12:45.572Z,9.54
2023-05-14T14:14:26.883Z,9.88
2023-05-14T14:16:08.232Z,9.79
2023-05-14T14:17:49.567Z,9.74
2023-05-14T14:19:30.916Z,9.37
2023-05-14T14:21:12.195Z,9.28
2023-05-14T14:22:53.482Z,9.50
2023-05-14T14:24:34.767Z,9.60
2023-05-14T14:26:16.123Z,9.59
2023-05-14T14:27:57.421Z,9.43
2023-05-14T14:29:38.826Z,9.32
2023-05-14T14:31:20.221Z,9.19
2023-05-14T14:33:01.585Z,9.19
2023-05-14T14:34:42.915Z,9.39
2023-05-14T14:36:24.236Z,9.00
2023-05-14T14:38:05.519Z,9.22
2023-05-14T14:39:46.811Z,9.22
2023-05-14T14:41:28.132Z,9.63
2023-05-14T14:43:09.421Z,9.40
2023-05-14T14:44:50.717Z,9.34
2023-05-14T14:46:32.121Z,9.38
2023-05-14T14:48:13.562Z,9.47
2023-05-14T14:49:54.896Z,10.29
2023-05-14T14:51:36.168Z,10.37
2023-05-14T14:53:17.477Z,10.21
2023-05-14T14:54:58.728Z,10.27
2023-05-14T14:56:39.999Z,10.23
2023-05-14T14:58:21.352Z,9.70
2023-05-14T15:00:02.852Z,9.88
2023-05-14T15:01:44.244Z,9.28
2023-05-14T15:03:25.851Z,9.39
2023-05-14T15:05:07.349Z,9.48
2023-05-14T15:06:48.636Z,9.40
2023-05-14T15:08:29.936Z,9.29
2023-05-14T15:10:11.257Z,8.72
2023-05-14T15:11:52.530Z,8.17
2023-05-14T15:13:33.842Z,8.36
2023-05-14T15:15:15.183Z,8.50
2023-05-14T15:16:56.510Z,8.39
2023-05-14T15:18:37.918Z,8.52
2023-05-14T15:20:19.315Z,8.93
2023-05-14T15:22:00.574Z,8.90
2023-05-14T15:23:41.861Z,9.17
2023-05-14T15:25:23.367Z,9.32
2023-05-14T15:27:04.799Z,8.59
2023-05-14T15:28:46.084Z,8.43
2023-05-14T15:30:27.396Z,8.50
2023-05-14T15:32:08.680Z,8.56
2023-05-14T15:33:49.976Z,8.78
2023-05-14T15:35:31.307Z,8.42
2023-05-14T15:37:12.591Z,8.31
2023-05-14T15:38:53.886Z,8.39
2023-05-14T15:40:35.194Z,8.51
2023-05-14T15:42:16.487Z,8.24
2023-05-14T15:43:57.784Z,8.19
2023-05-14T15:45:39.102Z,8.51
2023-05-14T15:47:20.414Z,8.52
2023-05-14T15:49:01.695Z,8.47
2023-05-14T15:50:42.984Z,8.21
2023-05-14T15:52:24.325Z,8.21
2023-05-14T15:54:05.650Z,8.10
2023-05-14T15:55:46.930Z,8.04
2023-05-14T15:57:28.210Z,8.02
2023-05-14T15:59:09.510Z,8.27
2023-05-14T16:00:50.780Z,8.06
2023-05-14T16:02:32.251Z,8.04
2023-05-14T16:04:13.631Z,8.54
2023-05-14T16:05:54.965Z,8.42
2023-05-14T16:07:36.294Z,8.30
2023-05-14T16:09:17.634Z,8.20
2023-05-14T16:10:58.905Z,8.23
2023-05-14T16:12:40.252Z,8.34
2023-05-14T16:14:21.553Z,8.10
2023-05-14T16:16:02.837Z,7.98
2023-05-14T16:17:44.190Z,8.18
2023-05-14T16:19:26.011Z,8.19
2023-05-14T16:21:07.311Z,7.92
2023-05-14T16:22:48.581Z,8.16
2023-05-14T16:24:29.888Z,8.00
2023-05-14T16:26:11.147Z,8.52
2023-05-14T16:27:52.452Z,8.34
2023-05-14T16:29:33.760Z,8.04
2023-05-14T16:31:15.046Z,8.11
2023-05-14T16:32:56.341Z,8.21
2023-05-14T16:34:37.671Z,8.21
2023-05-14T16:36:18.997Z,8.04
2023-05-14T16:38:00.274Z,8.15
2023-05-14T16:39:41.560Z,8.12
2023-05-14T16:41:22.870Z,8.21
2023-05-14T16:43:04.197Z,8.22
2023-05-14T16:44:45.501Z,8.02
2023-05-14T16:46:26.831Z,7.89
2023-05-14T16:48:08.208Z,7.59
2023-05-14T16:49:49.603Z,7.93
2023-05-14T16:51:30.918Z,7.91
2023-05-14T16:53:12.210Z,7.63
2023-05-14T16:54:53.534Z,7.53
2023-05-14T16:56:34.804Z,7.60
2023-05-14T16:58:16.084Z,7.88
2023-05-14T16:59:57.418Z,7.92
2023-05-14T17:01:38.734Z,8.24
2023-05-14T17:03:20.071Z,8.11
2023-05-14T17:05:01.556Z,8.10
2023-05-14T17:06:42.920Z,8.09
2023-05-14T17:08:24.208Z,7.74
2023-05-14T17:10:05.586Z,7.98
2023-05-14T17:11:46.913Z,8.32
2023-05-14T17:13:28.821Z,8.40
2023-05-14T17:15:10.380Z,8.46
2023-05-14T17:16:51.664Z,8.58
2023-05-14T17:18:33.096Z,8.52
2023-05-14T17:20:16.778Z,8.83
2023-05-14T17:21:58.733Z,9.06
2023-05-14T17:23:40.032Z,9.16
2023-05-14T17:25:21.535Z,9.26
2023-05-14T17:27:03.234Z,9.47
2023-05-14T17:28:44.670Z,9.72
2023-05-14T17:30:26.018Z,9.53
2023-05-14T17:32:08.496Z,9.51
2023-05-14T17:33:49.833Z,9.52
2023-05-14T17:35:31.171Z,9.58
2023-05-14T17:37:12.634Z,9.64
2023-05-14T17:38:53.917Z,9.57
2023-05-14T17:40:35.209Z,9.54
2023-05-14T17:42:17.046Z,9.62
2023-05-14T17:43:58.788Z,9.39
2023-05-14T17:45:53.279Z,9.08
2023-05-14T17:47:35.965Z,8.77
2023-05-14T17:49:17.499Z,8.55
2023-05-14T17:50:58.865Z,8.46
2023-05-14T17:52:40.394Z,8.45
2023-05-14T17:54:22.243Z,8.18
2023-05-14T17:56:03.723Z,7.89
2023-05-14T17:57:45.035Z,7.38
2023-05-14T17:59:26.376Z,7.58
2023-05-14T18:01:08.105Z,7.61
2023-05-14T18:02:49.786Z,7.56
2023-05-14T18:04:31.126Z,7.85
2023-05-14T18:06:12.424Z,7.70
2023-05-14T18:07:53.810Z,7.19
2023-05-14T18:09:35.121Z,7.05
2023-05-14T18:11:17.089Z,6.94
2023-05-14T18:12:58.575Z,6.93
2023-05-14T18:14:40.084Z,6.63
2023-05-14T18:16:21.568Z,6.44
2023-05-14T18:18:02.974Z,6.75
2023-05-14T18:19:44.496Z,6.79
2023-05-14T18:21:25.993Z,6.66
2023-05-14T18:23:07.359Z,7.04
2023-05-14T18:24:48.798Z,7.25
2023-05-14T18:26:32.209Z,7.07
2023-05-14T18:28:14.925Z,6.52
2023-05-14T18:29:56.431Z,6.39
2023-05-14T18:31:37.892Z,6.64
2023-05-14T18:33:19.441Z,6.87
2023-05-14T18:35:01.019Z,6.45
2023-05-14T18:36:42.318Z,6.75
2023-05-14T18:38:23.840Z,6.78
2023-05-14T18:40:05.369Z,6.77
2023-05-14T18:41:46.740Z,6.80
2023-05-14T18:43:28.089Z,7.00
2023-05-14T18:45:09.626Z,6.89
2023-05-14T18:46:51.235Z,7.21
2023-05-14T18:48:32.784Z,7.49
2023-05-14T18:50:14.061Z,7.83
2023-05-14T18:51:55.389Z,8.13
2023-05-14T18:53:36.740Z,8.30
2023-05-14T18:55:18.029Z,8.37
2023-05-14T18:56:59.533Z,8.39
2023-05-14T18:58:40.864Z,8.27
2023-05-14T19:00:22.130Z,8.49
2023-05-14T19:02:03.536Z,8.25
2023-05-14T19:03:45.340Z,8.43
2023-05-14T19:05:27.119Z,8.53
2023-05-14T19:07:08.514Z,8.68
2023-05-14T19:08:50.078Z,8.69
2023-05-14T19:10:31.600Z,8.89
2023-05-14T19:12:13.207Z,8.76
2023-05-14T19:13:54.759Z,8.81
2023-05-14T19:15:36.272Z,8.75
2023-05-14T19:17:19.203Z,8.79
2023-05-14T19:19:02.033Z,8.88
2023-05-14T19:20:43.555Z,8.51
2023-05-14T19:22:25.152Z,8.51
2023-05-14T19:24:06.460Z,8.71
2023-05-14T19:25:47.786Z,8.47
2023-05-14T19:27:29.110Z,8.66
2023-05-14T19:29:10.436Z,8.68
2023-05-14T19:30:51.757Z,8.57
2023-05-14T19:32:33.124Z,8.63
2023-05-14T19:34:14.407Z,8.74
2023-05-14T19:35:56.351Z,8.78
2023-05-14T19:37:37.896Z,8.82
2023-05-14T19:39:19.497Z,8.91
2023-05-14T19:41:01.034Z,8.90
2023-05-14T19:42:42.300Z,8.82
2023-05-14T19:44:23.622Z,8.67
2023-05-14T19:46:06.398Z,8.22
2023-05-14T19:47:48.085Z,7.87
2023-05-14T19:49:29.463Z,7.67
2023-05-14T19:51:10.770Z,7.80
2023-05-14T19:52:52.058Z,7.80
2023-05-14T19:54:33.380Z,7.93
2023-05-14T19:56:14.699Z,8.10
2023-05-14T19:57:56.741Z,8.02
2023-05-14T19:59:38.514Z,8.37
2023-05-14T20:01:20.125Z,8.56
2023-05-14T20:03:01.899Z,8.51
2023-05-14T20:04:43.568Z,8.60
2023-05-14T20:06:25.000Z,8.56
2023-05-14T20:08:06.373Z,8.49
2023-05-14T20:09:47.667Z,8.27
2023-05-14T20:11:29.183Z,7.90
2023-05-14T20:13:10.673Z,7.78
2023-05-14T20:14:52.252Z,7.61
2023-05-14T20:16:33.756Z,7.47
2023-05-14T20:18:15.078Z,7.39
2023-05-14T20:19:56.522Z,7.79
2023-05-14T20:21:38.040Z,7.74
2023-05-14T20:23:19.665Z,7.62
2023-05-14T20:25:01.158Z,7.67
2023-05-14T20:26:42.437Z,7.56
2023-05-14T20:28:24.095Z,7.36
2023-05-14T20:30:05.760Z,7.15
2023-05-14T20:31:47.153Z,7.10
2023-05-14T20:33:28.575Z,7.27
2023-05-14T20:35:09.881Z,7.59
2023-05-14T20:36:51.334Z,7.89
2023-05-14T20:38:32.694Z,8.16
2023-05-14T20:40:14.075Z,8.14
2023-05-14T20:41:55.484Z,8.15
2023-05-14T20:43:37.063Z,8.04
2023-05-14T20:45:18.519Z,7.73
2023-05-14T20:46:59.848Z,7.77
2023-05-14T20:48:41.373Z,7.97
2023-05-14T20:50:22.965Z,8.14
2023-05-14T20:52:04.342Z,7.95
2023-05-14T20:53:45.882Z,7.85
2023-05-14T20:55:27.611Z,7.86
2023-05-14T20:57:09.151Z,7.82
2023-05-14T20:58:50.740Z,7.76
2023-05-14T21:00:32.152Z,7.93
2023-05-14T21:02:13.624Z,8.14
2023-05-14T21:03:55.107Z,8.40
2023-05-14T21:05:36.522Z,8.34
2023-05-14T21:07:17.935Z,8.30
2023-05-14T21:08:59.576Z,7.98
2023-05-14T21:10:41.098Z,7.50
2023-05-14T21:12:22.461Z,7.25
2023-05-14T21:14:03.769Z,6.96
2023-05-14T21:15:45.081Z,7.07
2023-05-14T21:17:26.444Z,6.94
2023-05-14T21:19:07.831Z,6.97
2023-05-14T21:20:49.899Z,6.74
2023-05-14T21:22:31.466Z,6.81
2023-05-14T21:24:12.758Z,7.16
2023-05-14T21:25:54.066Z,7.40
2023-05-14T21:27:35.722Z,7.73
2023-05-14T21:29:17.247Z,7.59
2023-05-14T21:30:58.561Z,7.45
2023-05-14T21:32:39.931Z,7.17
2023-05-14T21:34:21.956Z,7.44
2023-05-14T21:36:03.465Z,7.66
2023-05-14T21:37:44.799Z,7.68
2023-05-14T21:39:26.372Z,7.42
2023-05-14T21:41:08.018Z,7.08
2023-05-14T21:42:49.426Z,7.30
2023-05-14T21:44:30.741Z,7.16
2023-05-14T21:46:12.507Z,6.50
2023-05-14T21:47:54.013Z,6.31
2023-05-14T21:49:35.402Z,6.18
2023-05-14T21:51:16.787Z,6.30
2023-05-14T21:52:58.062Z,6.29
2023-05-14T21:54:39.433Z,6.46
2023-05-14T21:56:20.748Z,6.85
2023-05-14T21:58:02.035Z,7.23
2023-05-14T21:59:43.351Z,7.50
2023-05-14T22:01:24.680Z,7.73
2023-05-14T22:03:06.166Z,7.94
2023-05-14T22:04:47.520Z,7.97
2023-05-14T22:06:28.803Z,7.99
2023-05-14T22:08:10.076Z,7.97
2023-05-14T22:09:57.936Z,8.00
2023-05-14T22:11:41.171Z,8.02
2023-05-14T22:13:36.011Z,7.96
2023-05-14T22:15:17.330Z,7.84
2023-05-14T22:16:58.784Z,7.65
2023-05-14T22:18:40.179Z,7.60
2023-05-14T22:20:21.493Z,7.59
2023-05-14T22:22:02.808Z,7.24